sensor_id;sensor_type;location;lat;lon;timestamp;P1;durP1;ratioP1;P2;durP2;ratioP2
17592;SDS011;8915;51.760;14.300;2024-02-21T00:01:08;15.50;;;4.07;;
17592;SDS011;8915;51.760;14.300;2024-02-21T00:03:41;10.23;;;3.03;;
17592;SDS011;8915;51.760;14.300;2024-02-21T00:06:07;14.93;;;4.10;;
17592;SDS011;8915;51.760;14.300;2024-02-21T00:08:33;7.40;;;3.23;;
17592;SDS011;8915;51.760;14.300;2024-02-21T00:11:00;13.83;;;3.63;;
17592;SDS011;8915;51.760;14.300;2024-02-21T00:13:26;13.43;;;3.60;;
17592;SDS011;8915;51.760;14.300;2024-02-21T00:15:54;11.37;;;3.50;;
17592;SDS011;8915;51.760;14.300;2024-02-21T00:18:20;9.17;;;3.53;;
17592;SDS011;8915;51.760;14.300;2024-02-21T00:20:47;12.03;;;3.53;;
17592;SDS011;8915;51.760;14.300;2024-02-21T00:23:13;12.63;;;3.20;;
17592;SDS011;8915;51.760;14.300;2024-02-21T00:25:40;9.77;;;3.30;;
17592;SDS011;8915;51.760;14.300;2024-02-21T00:28:06;12.57;;;3.73;;
17592;SDS011;8915;51.760;14.300;2024-02-21T00:30:32;14.57;;;3.73;;
17592;SDS011;8915;51.760;14.300;2024-02-21T00:33:00;12.23;;;3.60;;
17592;SDS011;8915;51.760;14.300;2024-02-21T00:35:26;9.93;;;3.33;;
17592;SDS011;8915;51.760;14.300;2024-02-21T00:37:53;13.57;;;3.53;;
17592;SDS011;8915;51.760;14.300;2024-02-21T00:40:19;6.83;;;2.83;;
17592;SDS011;8915;51.760;14.300;2024-02-21T00:42:47;7.67;;;3.13;;
17592;SDS011;8915;51.760;14.300;2024-02-21T00:45:13;19.37;;;3.80;;
17592;SDS011;8915;51.760;14.300;2024-02-21T00:47:39;9.10;;;3.53;;
17592;SDS011;8915;51.760;14.300;2024-02-21T00:50:09;13.10;;;4.03;;
17592;SDS011;8915;51.760;14.300;2024-02-21T00:52:35;17.03;;;3.57;;
17592;SDS011;8915;51.760;14.300;2024-02-21T00:55:02;11.57;;;3.57;;
17592;SDS011;8915;51.760;14.300;2024-02-21T00:57:28;11.80;;;3.20;;
17592;SDS011;8915;51.760;14.300;2024-02-21T00:59:55;12.97;;;3.60;;
17592;SDS011;8915;51.760;14.300;2024-02-21T01:02:21;12.53;;;4.13;;
17592;SDS011;8915;51.760;14.300;2024-02-21T01:04:48;12.07;;;3.30;;
17592;SDS011;8915;51.760;14.300;2024-02-21T01:07:15;10.13;;;3.87;;
17592;SDS011;8915;51.760;14.300;2024-02-21T01:09:42;15.70;;;3.13;;
17592;SDS011;8915;51.760;14.300;2024-02-21T01:12:08;13.07;;;3.97;;
17592;SDS011;8915;51.760;14.300;2024-02-21T01:14:34;9.30;;;3.50;;
17592;SDS011;8915;51.760;14.300;2024-02-21T01:17:01;13.07;;;3.10;;
17592;SDS011;8915;51.760;14.300;2024-02-21T01:19:27;9.90;;;3.33;;
17592;SDS011;8915;51.760;14.300;2024-02-21T01:21:53;12.60;;;3.30;;
17592;SDS011;8915;51.760;14.300;2024-02-21T01:24:21;11.47;;;3.27;;
17592;SDS011;8915;51.760;14.300;2024-02-21T01:26:49;15.80;;;3.60;;
17592;SDS011;8915;51.760;14.300;2024-02-21T01:29:15;14.37;;;3.53;;
17592;SDS011;8915;51.760;14.300;2024-02-21T01:31:42;15.77;;;3.93;;
17592;SDS011;8915;51.760;14.300;2024-02-21T01:34:08;12.60;;;3.87;;
17592;SDS011;8915;51.760;14.300;2024-02-21T01:36:35;12.10;;;3.73;;
17592;SDS011;8915;51.760;14.300;2024-02-21T01:39:01;5.20;;;2.80;;
17592;SDS011;8915;51.760;14.300;2024-02-21T01:41:30;10.40;;;3.30;;
17592;SDS011;8915;51.760;14.300;2024-02-21T01:43:57;11.60;;;3.10;;
17592;SDS011;8915;51.760;14.300;2024-02-21T01:46:23;15.47;;;5.07;;
17592;SDS011;8915;51.760;14.300;2024-02-21T01:48:52;8.00;;;3.27;;
17592;SDS011;8915;51.760;14.300;2024-02-21T01:51:19;8.90;;;3.17;;
17592;SDS011;8915;51.760;14.300;2024-02-21T01:53:45;12.33;;;3.70;;
17592;SDS011;8915;51.760;14.300;2024-02-21T01:56:12;9.90;;;3.33;;
17592;SDS011;8915;51.760;14.300;2024-02-21T01:58:42;12.33;;;3.27;;
17592;SDS011;8915;51.760;14.300;2024-02-21T02:01:09;11.20;;;3.43;;
17592;SDS011;8915;51.760;14.300;2024-02-21T02:03:35;7.03;;;2.97;;
17592;SDS011;8915;51.760;14.300;2024-02-21T02:06:03;11.97;;;3.17;;
17592;SDS011;8915;51.760;14.300;2024-02-21T02:08:31;7.73;;;2.60;;
17592;SDS011;8915;51.760;14.300;2024-02-21T02:10:57;10.80;;;3.67;;
17592;SDS011;8915;51.760;14.300;2024-02-21T02:13:25;9.90;;;3.23;;
17592;SDS011;8915;51.760;14.300;2024-02-21T02:15:53;5.67;;;3.00;;
17592;SDS011;8915;51.760;14.300;2024-02-21T02:18:19;11.07;;;3.70;;
17592;SDS011;8915;51.760;14.300;2024-02-21T02:20:46;12.07;;;2.67;;
17592;SDS011;8915;51.760;14.300;2024-02-21T02:25:43;11.60;;;3.60;;
17592;SDS011;8915;51.760;14.300;2024-02-21T02:28:14;14.43;;;3.60;;
17592;SDS011;8915;51.760;14.300;2024-02-21T02:30:41;14.47;;;3.37;;
17592;SDS011;8915;51.760;14.300;2024-02-21T02:33:07;8.33;;;3.50;;
17592;SDS011;8915;51.760;14.300;2024-02-21T02:35:34;7.83;;;2.87;;
17592;SDS011;8915;51.760;14.300;2024-02-21T02:38:01;7.33;;;3.03;;
17592;SDS011;8915;51.760;14.300;2024-02-21T02:40:29;11.73;;;2.97;;
17592;SDS011;8915;51.760;14.300;2024-02-21T02:42:56;11.63;;;2.60;;
17592;SDS011;8915;51.760;14.300;2024-02-21T02:45:23;7.53;;;2.93;;
17592;SDS011;8915;51.760;14.300;2024-02-21T02:47:51;11.73;;;2.97;;
17592;SDS011;8915;51.760;14.300;2024-02-21T02:50:18;14.13;;;2.90;;
17592;SDS011;8915;51.760;14.300;2024-02-21T02:52:45;14.30;;;2.70;;
17592;SDS011;8915;51.760;14.300;2024-02-21T02:55:11;13.30;;;3.43;;
17592;SDS011;8915;51.760;14.300;2024-02-21T02:57:39;8.87;;;2.90;;
17592;SDS011;8915;51.760;14.300;2024-02-21T03:00:07;17.63;;;3.23;;
17592;SDS011;8915;51.760;14.300;2024-02-21T03:02:34;6.53;;;2.90;;
17592;SDS011;8915;51.760;14.300;2024-02-21T03:05:01;11.97;;;3.10;;
17592;SDS011;8915;51.760;14.300;2024-02-21T03:07:38;9.83;;;3.27;;
17592;SDS011;8915;51.760;14.300;2024-02-21T03:10:04;12.50;;;3.93;;
17592;SDS011;8915;51.760;14.300;2024-02-21T03:12:31;9.50;;;3.07;;
17592;SDS011;8915;51.760;14.300;2024-02-21T03:14:59;8.37;;;3.10;;
17592;SDS011;8915;51.760;14.300;2024-02-21T03:17:25;8.03;;;2.97;;
17592;SDS011;8915;51.760;14.300;2024-02-21T03:19:53;9.73;;;3.03;;
17592;SDS011;8915;51.760;14.300;2024-02-21T03:22:20;8.97;;;3.40;;
17592;SDS011;8915;51.760;14.300;2024-02-21T03:24:47;6.93;;;3.00;;
17592;SDS011;8915;51.760;14.300;2024-02-21T03:27:13;9.20;;;2.93;;
17592;SDS011;8915;51.760;14.300;2024-02-21T03:29:40;10.40;;;3.63;;
17592;SDS011;8915;51.760;14.300;2024-02-21T03:32:07;11.03;;;2.87;;
17592;SDS011;8915;51.760;14.300;2024-02-21T03:34:34;9.63;;;2.83;;
17592;SDS011;8915;51.760;14.300;2024-02-21T03:37:01;14.27;;;3.20;;
17592;SDS011;8915;51.760;14.300;2024-02-21T03:39:30;8.00;;;3.00;;
17592;SDS011;8915;51.760;14.300;2024-02-21T03:41:57;9.13;;;3.27;;
17592;SDS011;8915;51.760;14.300;2024-02-21T03:44:25;10.10;;;2.87;;
17592;SDS011;8915;51.760;14.300;2024-02-21T03:46:52;11.37;;;3.90;;
17592;SDS011;8915;51.760;14.300;2024-02-21T03:49:19;7.80;;;3.10;;
17592;SDS011;8915;51.760;14.300;2024-02-21T03:51:46;11.53;;;2.77;;
17592;SDS011;8915;51.760;14.300;2024-02-21T03:54:12;9.77;;;3.23;;
17592;SDS011;8915;51.760;14.300;2024-02-21T03:56:38;13.43;;;3.30;;
17592;SDS011;8915;51.760;14.300;2024-02-21T03:59:06;9.37;;;3.33;;
17592;SDS011;8915;51.760;14.300;2024-02-21T04:01:33;11.27;;;3.93;;
17592;SDS011;8915;51.760;14.300;2024-02-21T04:03:59;11.43;;;3.53;;
17592;SDS011;8915;51.760;14.300;2024-02-21T04:06:27;12.93;;;4.23;;
17592;SDS011;8915;51.760;14.300;2024-02-21T04:08:53;11.37;;;3.53;;
17592;SDS011;8915;51.760;14.300;2024-02-21T04:11:20;9.17;;;3.00;;
17592;SDS011;8915;51.760;14.300;2024-02-21T04:13:47;14.10;;;3.47;;
17592;SDS011;8915;51.760;14.300;2024-02-21T04:16:15;8.67;;;3.47;;
17592;SDS011;8915;51.760;14.300;2024-02-21T04:18:41;11.53;;;3.53;;
17592;SDS011;8915;51.760;14.300;2024-02-21T04:21:08;10.80;;;3.47;;
17592;SDS011;8915;51.760;14.300;2024-02-21T04:23:35;11.10;;;3.80;;
17592;SDS011;8915;51.760;14.300;2024-02-21T04:26:02;13.27;;;3.73;;
17592;SDS011;8915;51.760;14.300;2024-02-21T04:28:28;14.53;;;3.20;;
17592;SDS011;8915;51.760;14.300;2024-02-21T04:30:55;12.83;;;3.47;;
17592;SDS011;8915;51.760;14.300;2024-02-21T04:33:21;13.53;;;3.50;;
17592;SDS011;8915;51.760;14.300;2024-02-21T04:35:48;12.30;;;3.70;;
17592;SDS011;8915;51.760;14.300;2024-02-21T04:38:14;8.70;;;3.80;;
17592;SDS011;8915;51.760;14.300;2024-02-21T04:40:42;14.23;;;4.03;;
17592;SDS011;8915;51.760;14.300;2024-02-21T04:43:08;16.07;;;4.00;;
17592;SDS011;8915;51.760;14.300;2024-02-21T04:45:34;7.67;;;3.17;;
17592;SDS011;8915;51.760;14.300;2024-02-21T04:48:01;11.43;;;3.43;;
17592;SDS011;8915;51.760;14.300;2024-02-21T04:50:27;9.97;;;3.47;;
17592;SDS011;8915;51.760;14.300;2024-02-21T04:52:53;11.30;;;3.60;;
17592;SDS011;8915;51.760;14.300;2024-02-21T04:55:20;15.43;;;3.80;;
17592;SDS011;8915;51.760;14.300;2024-02-21T04:57:47;10.90;;;4.23;;
17592;SDS011;8915;51.760;14.300;2024-02-21T05:00:14;14.67;;;4.07;;
17592;SDS011;8915;51.760;14.300;2024-02-21T05:02:41;9.50;;;3.70;;
17592;SDS011;8915;51.760;14.300;2024-02-21T05:05:07;9.40;;;3.80;;
17592;SDS011;8915;51.760;14.300;2024-02-21T05:07:34;8.43;;;3.90;;
17592;SDS011;8915;51.760;14.300;2024-02-21T05:10:01;12.30;;;3.63;;
17592;SDS011;8915;51.760;14.300;2024-02-21T05:12:27;10.43;;;3.53;;
17592;SDS011;8915;51.760;14.300;2024-02-21T05:14:56;7.13;;;3.50;;
17592;SDS011;8915;51.760;14.300;2024-02-21T05:17:22;12.63;;;4.90;;
17592;SDS011;8915;51.760;14.300;2024-02-21T05:19:49;13.50;;;4.67;;
17592;SDS011;8915;51.760;14.300;2024-02-21T05:22:15;10.93;;;3.83;;
17592;SDS011;8915;51.760;14.300;2024-02-21T05:24:41;10.87;;;3.50;;
17592;SDS011;8915;51.760;14.300;2024-02-21T05:27:08;14.73;;;4.33;;
17592;SDS011;8915;51.760;14.300;2024-02-21T05:29:34;15.17;;;4.43;;
17592;SDS011;8915;51.760;14.300;2024-02-21T05:32:02;18.30;;;4.33;;
17592;SDS011;8915;51.760;14.300;2024-02-21T05:34:29;11.10;;;3.33;;
17592;SDS011;8915;51.760;14.300;2024-02-21T05:36:55;8.33;;;3.90;;
17592;SDS011;8915;51.760;14.300;2024-02-21T05:39:22;10.30;;;3.70;;
17592;SDS011;8915;51.760;14.300;2024-02-21T05:41:49;11.70;;;3.43;;
17592;SDS011;8915;51.760;14.300;2024-02-21T05:44:16;13.37;;;3.57;;
17592;SDS011;8915;51.760;14.300;2024-02-21T05:46:42;12.50;;;4.03;;
17592;SDS011;8915;51.760;14.300;2024-02-21T05:49:10;10.40;;;3.90;;
17592;SDS011;8915;51.760;14.300;2024-02-21T05:51:36;14.53;;;3.70;;
17592;SDS011;8915;51.760;14.300;2024-02-21T05:54:03;7.53;;;3.40;;
17592;SDS011;8915;51.760;14.300;2024-02-21T05:56:29;14.07;;;3.97;;
17592;SDS011;8915;51.760;14.300;2024-02-21T05:58:56;14.43;;;4.23;;
17592;SDS011;8915;51.760;14.300;2024-02-21T06:01:22;16.00;;;4.37;;
17592;SDS011;8915;51.760;14.300;2024-02-21T06:03:49;12.50;;;4.27;;
17592;SDS011;8915;51.760;14.300;2024-02-21T06:06:16;13.27;;;4.50;;
17592;SDS011;8915;51.760;14.300;2024-02-21T06:08:43;13.73;;;4.87;;
17592;SDS011;8915;51.760;14.300;2024-02-21T06:11:09;10.53;;;4.03;;
17592;SDS011;8915;51.760;14.300;2024-02-21T06:13:37;12.43;;;4.60;;
17592;SDS011;8915;51.760;14.300;2024-02-21T06:16:05;13.57;;;4.73;;
17592;SDS011;8915;51.760;14.300;2024-02-21T06:18:32;20.10;;;4.90;;
17592;SDS011;8915;51.760;14.300;2024-02-21T06:20:59;14.33;;;4.40;;
17592;SDS011;8915;51.760;14.300;2024-02-21T06:23:27;12.77;;;4.20;;
17592;SDS011;8915;51.760;14.300;2024-02-21T06:25:53;11.97;;;4.70;;
17592;SDS011;8915;51.760;14.300;2024-02-21T06:28:20;16.93;;;6.03;;
17592;SDS011;8915;51.760;14.300;2024-02-21T06:30:46;15.43;;;5.10;;
17592;SDS011;8915;51.760;14.300;2024-02-21T06:33:13;12.33;;;4.60;;
17592;SDS011;8915;51.760;14.300;2024-02-21T06:35:39;13.07;;;4.77;;
17592;SDS011;8915;51.760;14.300;2024-02-21T06:38:07;9.13;;;4.83;;
17592;SDS011;8915;51.760;14.300;2024-02-21T06:40:35;9.00;;;4.20;;
17592;SDS011;8915;51.760;14.300;2024-02-21T06:43:05;14.43;;;3.77;;
17592;SDS011;8915;51.760;14.300;2024-02-21T06:45:32;17.87;;;4.53;;
17592;SDS011;8915;51.760;14.300;2024-02-21T06:48:01;13.77;;;3.93;;
17592;SDS011;8915;51.760;14.300;2024-02-21T06:50:28;10.37;;;4.03;;
17592;SDS011;8915;51.760;14.300;2024-02-21T06:52:55;7.80;;;4.20;;
17592;SDS011;8915;51.760;14.300;2024-02-21T06:55:21;11.43;;;5.00;;
17592;SDS011;8915;51.760;14.300;2024-02-21T06:57:49;11.73;;;3.63;;
17592;SDS011;8915;51.760;14.300;2024-02-21T07:00:16;12.73;;;4.00;;
17592;SDS011;8915;51.760;14.300;2024-02-21T07:02:43;8.17;;;4.07;;
17592;SDS011;8915;51.760;14.300;2024-02-21T07:05:09;10.33;;;4.10;;
17592;SDS011;8915;51.760;14.300;2024-02-21T07:07:36;9.33;;;4.03;;
17592;SDS011;8915;51.760;14.300;2024-02-21T07:10:02;11.37;;;4.17;;
17592;SDS011;8915;51.760;14.300;2024-02-21T07:12:29;13.93;;;3.93;;
17592;SDS011;8915;51.760;14.300;2024-02-21T07:14:57;10.80;;;4.67;;
17592;SDS011;8915;51.760;14.300;2024-02-21T07:17:23;10.33;;;3.90;;
17592;SDS011;8915;51.760;14.300;2024-02-21T07:19:50;9.83;;;4.03;;
17592;SDS011;8915;51.760;14.300;2024-02-21T07:22:16;11.70;;;3.77;;
17592;SDS011;8915;51.760;14.300;2024-02-21T07:24:42;12.20;;;4.20;;
17592;SDS011;8915;51.760;14.300;2024-02-21T07:27:09;14.60;;;4.27;;
17592;SDS011;8915;51.760;14.300;2024-02-21T07:29:35;13.73;;;4.80;;
17592;SDS011;8915;51.760;14.300;2024-02-21T07:32:03;10.67;;;4.07;;
17592;SDS011;8915;51.760;14.300;2024-02-21T07:34:30;9.20;;;4.00;;
17592;SDS011;8915;51.760;14.300;2024-02-21T07:36:56;10.33;;;4.73;;
17592;SDS011;8915;51.760;14.300;2024-02-21T07:39:25;14.57;;;4.37;;
17592;SDS011;8915;51.760;14.300;2024-02-21T07:41:51;10.63;;;3.87;;
17592;SDS011;8915;51.760;14.300;2024-02-21T07:44:18;13.37;;;4.37;;
17592;SDS011;8915;51.760;14.300;2024-02-21T07:46:44;14.53;;;4.87;;
17592;SDS011;8915;51.760;14.300;2024-02-21T07:49:12;8.57;;;3.63;;
17592;SDS011;8915;51.760;14.300;2024-02-21T07:51:38;12.37;;;4.60;;
17592;SDS011;8915;51.760;14.300;2024-02-21T07:54:07;11.10;;;4.27;;
17592;SDS011;8915;51.760;14.300;2024-02-21T07:56:33;9.63;;;3.70;;
17592;SDS011;8915;51.760;14.300;2024-02-21T07:58:59;8.30;;;3.83;;
17592;SDS011;8915;51.760;14.300;2024-02-21T08:01:26;10.13;;;3.57;;
17592;SDS011;8915;51.760;14.300;2024-02-21T08:03:52;11.47;;;4.10;;
17592;SDS011;8915;51.760;14.300;2024-02-21T08:06:20;9.27;;;4.17;;
17592;SDS011;8915;51.760;14.300;2024-02-21T08:08:46;12.90;;;4.27;;
17592;SDS011;8915;51.760;14.300;2024-02-21T08:11:12;11.17;;;4.13;;
17592;SDS011;8915;51.760;14.300;2024-02-21T08:13:39;15.77;;;4.20;;
17592;SDS011;8915;51.760;14.300;2024-02-21T08:16:05;13.97;;;4.57;;
17592;SDS011;8915;51.760;14.300;2024-02-21T08:18:32;10.27;;;4.40;;
17592;SDS011;8915;51.760;14.300;2024-02-21T08:21:01;13.73;;;4.10;;
17592;SDS011;8915;51.760;14.300;2024-02-21T08:23:30;11.43;;;4.13;;
17592;SDS011;8915;51.760;14.300;2024-02-21T08:25:57;13.93;;;4.70;;
17592;SDS011;8915;51.760;14.300;2024-02-21T08:28:23;11.00;;;4.17;;
17592;SDS011;8915;51.760;14.300;2024-02-21T08:30:50;13.90;;;4.23;;
17592;SDS011;8915;51.760;14.300;2024-02-21T08:33:16;13.97;;;4.57;;
17592;SDS011;8915;51.760;14.300;2024-02-21T08:35:43;7.47;;;4.30;;
17592;SDS011;8915;51.760;14.300;2024-02-21T08:38:10;15.47;;;4.73;;
17592;SDS011;8915;51.760;14.300;2024-02-21T08:40:37;13.00;;;4.83;;
17592;SDS011;8915;51.760;14.300;2024-02-21T08:43:04;12.83;;;3.90;;
17592;SDS011;8915;51.760;14.300;2024-02-21T08:45:30;13.23;;;4.50;;
17592;SDS011;8915;51.760;14.300;2024-02-21T08:47:57;9.27;;;3.77;;
17592;SDS011;8915;51.760;14.300;2024-02-21T08:50:23;9.27;;;4.53;;
17592;SDS011;8915;51.760;14.300;2024-02-21T08:52:49;8.87;;;4.30;;
17592;SDS011;8915;51.760;14.300;2024-02-21T08:55:16;9.90;;;3.90;;
17592;SDS011;8915;51.760;14.300;2024-02-21T08:57:43;10.53;;;4.30;;
17592;SDS011;8915;51.760;14.300;2024-02-21T09:00:10;10.30;;;4.30;;
17592;SDS011;8915;51.760;14.300;2024-02-21T09:02:39;8.27;;;4.23;;
17592;SDS011;8915;51.760;14.300;2024-02-21T09:05:08;12.27;;;4.53;;
17592;SDS011;8915;51.760;14.300;2024-02-21T09:07:34;8.07;;;3.90;;
17592;SDS011;8915;51.760;14.300;2024-02-21T09:10:00;10.17;;;4.47;;
17592;SDS011;8915;51.760;14.300;2024-02-21T09:12:27;12.70;;;4.60;;
17592;SDS011;8915;51.760;14.300;2024-02-21T09:14:56;10.10;;;5.63;;
17592;SDS011;8915;51.760;14.300;2024-02-21T09:17:22;15.23;;;4.83;;
17592;SDS011;8915;51.760;14.300;2024-02-21T09:19:50;11.63;;;4.90;;
17592;SDS011;8915;51.760;14.300;2024-02-21T09:22:16;13.57;;;4.50;;
17592;SDS011;8915;51.760;14.300;2024-02-21T09:24:42;9.57;;;4.07;;
17592;SDS011;8915;51.760;14.300;2024-02-21T09:27:09;10.13;;;4.63;;
17592;SDS011;8915;51.760;14.300;2024-02-21T09:29:35;9.73;;;4.87;;
17592;SDS011;8915;51.760;14.300;2024-02-21T09:32:03;10.33;;;4.03;;
17592;SDS011;8915;51.760;14.300;2024-02-21T09:34:30;8.83;;;4.47;;
17592;SDS011;8915;51.760;14.300;2024-02-21T09:36:56;12.97;;;4.23;;
17592;SDS011;8915;51.760;14.300;2024-02-21T09:39:23;9.77;;;4.47;;
17592;SDS011;8915;51.760;14.300;2024-02-21T09:41:50;8.67;;;4.63;;
17592;SDS011;8915;51.760;14.300;2024-02-21T09:44:20;9.90;;;4.10;;
17592;SDS011;8915;51.760;14.300;2024-02-21T09:46:51;9.63;;;4.50;;
17592;SDS011;8915;51.760;14.300;2024-02-21T09:49:28;6.77;;;3.73;;
17592;SDS011;8915;51.760;14.300;2024-02-21T09:51:57;11.80;;;5.93;;
17592;SDS011;8915;51.760;14.300;2024-02-21T09:54:32;10.37;;;6.40;;
17592;SDS011;8915;51.760;14.300;2024-02-21T09:56:59;8.47;;;5.17;;
17592;SDS011;8915;51.760;14.300;2024-02-21T09:59:26;10.60;;;5.23;;
17592;SDS011;8915;51.760;14.300;2024-02-21T10:01:53;7.53;;;3.87;;
17592;SDS011;8915;51.760;14.300;2024-02-21T10:04:20;8.47;;;4.47;;
17592;SDS011;8915;51.760;14.300;2024-02-21T10:06:48;9.13;;;4.10;;
17592;SDS011;8915;51.760;14.300;2024-02-21T10:09:21;7.07;;;4.23;;
17592;SDS011;8915;51.760;14.300;2024-02-21T10:11:48;7.40;;;4.23;;
17592;SDS011;8915;51.760;14.300;2024-02-21T10:14:15;7.67;;;3.97;;
17592;SDS011;8915;51.760;14.300;2024-02-21T10:16:42;11.10;;;4.73;;
17592;SDS011;8915;51.760;14.300;2024-02-21T10:19:15;12.10;;;4.63;;
17592;SDS011;8915;51.760;14.300;2024-02-21T10:21:42;7.83;;;4.20;;
17592;SDS011;8915;51.760;14.300;2024-02-21T10:24:11;12.13;;;4.33;;
17592;SDS011;8915;51.760;14.300;2024-02-21T10:26:38;7.37;;;4.40;;
17592;SDS011;8915;51.760;14.300;2024-02-21T10:29:04;8.20;;;4.20;;
17592;SDS011;8915;51.760;14.300;2024-02-21T10:31:31;8.13;;;4.07;;
17592;SDS011;8915;51.760;14.300;2024-02-21T10:33:58;9.73;;;4.63;;
17592;SDS011;8915;51.760;14.300;2024-02-21T10:36:28;8.10;;;4.90;;
17592;SDS011;8915;51.760;14.300;2024-02-21T10:38:55;11.63;;;4.50;;
17592;SDS011;8915;51.760;14.300;2024-02-21T10:41:23;9.63;;;4.97;;
17592;SDS011;8915;51.760;14.300;2024-02-21T10:43:50;10.03;;;4.43;;
17592;SDS011;8915;51.760;14.300;2024-02-21T10:46:18;7.77;;;4.43;;
17592;SDS011;8915;51.760;14.300;2024-02-21T10:48:46;8.80;;;4.10;;
17592;SDS011;8915;51.760;14.300;2024-02-21T10:51:14;9.43;;;4.83;;
17592;SDS011;8915;51.760;14.300;2024-02-21T10:53:44;13.37;;;5.10;;
17592;SDS011;8915;51.760;14.300;2024-02-21T10:56:18;9.67;;;4.60;;
17592;SDS011;8915;51.760;14.300;2024-02-21T10:58:53;11.90;;;4.77;;
17592;SDS011;8915;51.760;14.300;2024-02-21T11:01:20;9.83;;;4.37;;
17592;SDS011;8915;51.760;14.300;2024-02-21T11:03:48;10.03;;;4.47;;
17592;SDS011;8915;51.760;14.300;2024-02-21T11:06:16;7.67;;;4.37;;
17592;SDS011;8915;51.760;14.300;2024-02-21T11:08:44;8.70;;;5.33;;
17592;SDS011;8915;51.760;14.300;2024-02-21T11:11:12;10.13;;;5.00;;
17592;SDS011;8915;51.760;14.300;2024-02-21T11:13:43;6.47;;;4.30;;
17592;SDS011;8915;51.760;14.300;2024-02-21T11:16:11;8.00;;;4.50;;
17592;SDS011;8915;51.760;14.300;2024-02-21T11:18:47;6.90;;;4.50;;
17592;SDS011;8915;51.760;14.300;2024-02-21T11:21:13;11.80;;;4.40;;
17592;SDS011;8915;51.760;14.300;2024-02-21T11:23:40;8.87;;;4.70;;
17592;SDS011;8915;51.760;14.300;2024-02-21T11:26:06;10.20;;;4.97;;
17592;SDS011;8915;51.760;14.300;2024-02-21T11:28:34;9.20;;;4.70;;
17592;SDS011;8915;51.760;14.300;2024-02-21T11:31:08;9.80;;;4.90;;
17592;SDS011;8915;51.760;14.300;2024-02-21T11:33:35;8.30;;;4.40;;
17592;SDS011;8915;51.760;14.300;2024-02-21T11:36:01;9.13;;;4.20;;
17592;SDS011;8915;51.760;14.300;2024-02-21T11:38:29;8.23;;;4.80;;
17592;SDS011;8915;51.760;14.300;2024-02-21T11:40:56;7.13;;;4.30;;
17592;SDS011;8915;51.760;14.300;2024-02-21T11:43:23;8.07;;;4.33;;
17592;SDS011;8915;51.760;14.300;2024-02-21T11:45:50;8.63;;;4.60;;
17592;SDS011;8915;51.760;14.300;2024-02-21T11:48:18;8.07;;;4.63;;
17592;SDS011;8915;51.760;14.300;2024-02-21T11:50:52;8.70;;;4.17;;
17592;SDS011;8915;51.760;14.300;2024-02-21T11:53:19;11.70;;;5.53;;
17592;SDS011;8915;51.760;14.300;2024-02-21T11:55:46;8.23;;;3.90;;
17592;SDS011;8915;51.760;14.300;2024-02-21T11:58:13;10.47;;;4.40;;
17592;SDS011;8915;51.760;14.300;2024-02-21T12:00:39;7.40;;;4.70;;
17592;SDS011;8915;51.760;14.300;2024-02-21T12:03:06;10.30;;;4.30;;
17592;SDS011;8915;51.760;14.300;2024-02-21T12:05:34;10.40;;;4.17;;
17592;SDS011;8915;51.760;14.300;2024-02-21T12:08:01;8.10;;;3.97;;
17592;SDS011;8915;51.760;14.300;2024-02-21T12:10:27;6.63;;;4.20;;
17592;SDS011;8915;51.760;14.300;2024-02-21T12:12:53;7.27;;;4.03;;
17592;SDS011;8915;51.760;14.300;2024-02-21T12:15:23;9.30;;;4.43;;
17592;SDS011;8915;51.760;14.300;2024-02-21T12:17:50;9.57;;;4.80;;
17592;SDS011;8915;51.760;14.300;2024-02-21T12:20:16;8.67;;;3.80;;
17592;SDS011;8915;51.760;14.300;2024-02-21T12:22:48;9.43;;;3.90;;
17592;SDS011;8915;51.760;14.300;2024-02-21T12:25:15;8.07;;;4.13;;
17592;SDS011;8915;51.760;14.300;2024-02-21T12:27:43;8.97;;;4.10;;
17592;SDS011;8915;51.760;14.300;2024-02-21T12:30:10;10.63;;;4.50;;
17592;SDS011;8915;51.760;14.300;2024-02-21T12:32:37;10.03;;;4.00;;
17592;SDS011;8915;51.760;14.300;2024-02-21T12:35:03;7.37;;;3.67;;
17592;SDS011;8915;51.760;14.300;2024-02-21T12:37:30;9.20;;;3.93;;
17592;SDS011;8915;51.760;14.300;2024-02-21T12:39:59;10.93;;;3.77;;
17592;SDS011;8915;51.760;14.300;2024-02-21T12:42:25;12.90;;;3.50;;
17592;SDS011;8915;51.760;14.300;2024-02-21T12:44:53;8.60;;;3.33;;
17592;SDS011;8915;51.760;14.300;2024-02-21T12:47:20;6.53;;;3.57;;
17592;SDS011;8915;51.760;14.300;2024-02-21T12:49:48;4.77;;;2.83;;
17592;SDS011;8915;51.760;14.300;2024-02-21T12:52:15;5.00;;;3.37;;
17592;SDS011;8915;51.760;14.300;2024-02-21T12:54:41;7.20;;;3.10;;
17592;SDS011;8915;51.760;14.300;2024-02-21T12:57:09;7.97;;;2.80;;
17592;SDS011;8915;51.760;14.300;2024-02-21T12:59:36;8.03;;;3.40;;
17592;SDS011;8915;51.760;14.300;2024-02-21T13:02:02;7.67;;;2.70;;
17592;SDS011;8915;51.760;14.300;2024-02-21T13:04:31;9.90;;;3.90;;
17592;SDS011;8915;51.760;14.300;2024-02-21T13:06:57;7.77;;;3.80;;
17592;SDS011;8915;51.760;14.300;2024-02-21T13:09:23;7.83;;;3.97;;
17592;SDS011;8915;51.760;14.300;2024-02-21T13:11:50;6.20;;;3.40;;
17592;SDS011;8915;51.760;14.300;2024-02-21T13:14:19;8.53;;;3.60;;
17592;SDS011;8915;51.760;14.300;2024-02-21T13:16:46;7.53;;;3.60;;
17592;SDS011;8915;51.760;14.300;2024-02-21T13:19:12;10.77;;;4.40;;
17592;SDS011;8915;51.760;14.300;2024-02-21T13:21:42;7.60;;;3.90;;
17592;SDS011;8915;51.760;14.300;2024-02-21T13:24:08;9.33;;;4.00;;
17592;SDS011;8915;51.760;14.300;2024-02-21T13:26:35;6.60;;;4.30;;
17592;SDS011;8915;51.760;14.300;2024-02-21T13:29:01;11.00;;;3.83;;
17592;SDS011;8915;51.760;14.300;2024-02-21T13:31:29;12.27;;;4.40;;
17592;SDS011;8915;51.760;14.300;2024-02-21T13:33:55;8.67;;;4.30;;
17592;SDS011;8915;51.760;14.300;2024-02-21T13:36:22;8.27;;;3.93;;
17592;SDS011;8915;51.760;14.300;2024-02-21T13:38:48;11.50;;;3.87;;
17592;SDS011;8915;51.760;14.300;2024-02-21T13:41:16;7.17;;;3.60;;
17592;SDS011;8915;51.760;14.300;2024-02-21T13:43:42;7.70;;;4.07;;
17592;SDS011;8915;51.760;14.300;2024-02-21T13:46:11;7.57;;;3.90;;
17592;SDS011;8915;51.760;14.300;2024-02-21T13:48:39;7.30;;;3.63;;
17592;SDS011;8915;51.760;14.300;2024-02-21T13:51:13;7.17;;;3.53;;
17592;SDS011;8915;51.760;14.300;2024-02-21T13:53:48;4.13;;;3.27;;
17592;SDS011;8915;51.760;14.300;2024-02-21T13:56:26;5.80;;;3.67;;
17592;SDS011;8915;51.760;14.300;2024-02-21T13:58:53;4.97;;;3.70;;
17592;SDS011;8915;51.760;14.300;2024-02-21T14:01:25;8.03;;;3.30;;
17592;SDS011;8915;51.760;14.300;2024-02-21T14:03:58;6.67;;;3.13;;
17592;SDS011;8915;51.760;14.300;2024-02-21T14:06:35;6.03;;;3.47;;
17592;SDS011;8915;51.760;14.300;2024-02-21T14:09:16;5.00;;;3.70;;
17592;SDS011;8915;51.760;14.300;2024-02-21T14:11:45;6.17;;;3.40;;
17592;SDS011;8915;51.760;14.300;2024-02-21T14:14:16;5.13;;;2.87;;
17592;SDS011;8915;51.760;14.300;2024-02-21T14:17:02;7.17;;;4.40;;
17592;SDS011;8915;51.760;14.300;2024-02-21T14:19:33;5.77;;;2.87;;
17592;SDS011;8915;51.760;14.300;2024-02-21T14:22:07;5.70;;;3.00;;
17592;SDS011;8915;51.760;14.300;2024-02-21T14:24:35;8.63;;;3.40;;
17592;SDS011;8915;51.760;14.300;2024-02-21T14:27:30;5.37;;;3.17;;
17592;SDS011;8915;51.760;14.300;2024-02-21T14:29:59;7.17;;;3.30;;
17592;SDS011;8915;51.760;14.300;2024-02-21T14:32:43;6.27;;;3.30;;
17592;SDS011;8915;51.760;14.300;2024-02-21T14:35:21;6.33;;;2.70;;
17592;SDS011;8915;51.760;14.300;2024-02-21T14:38:14;5.33;;;3.30;;
17592;SDS011;8915;51.760;14.300;2024-02-21T14:40:46;5.70;;;3.27;;
17592;SDS011;8915;51.760;14.300;2024-02-21T14:43:33;5.77;;;2.80;;
17592;SDS011;8915;51.760;14.300;2024-02-21T14:46:00;8.37;;;2.93;;